sensor_id;sensor_type;location;lat;lon;timestamp;temperature;humidity
24814;DHT22;12904;50.088;11.414;2024-02-21T00:00:05;7.20;99.90
24814;DHT22;12904;50.088;11.414;2024-02-21T00:02:31;7.20;99.90
24814;DHT22;12904;50.088;11.414;2024-02-21T00:04:56;7.20;99.90
24814;DHT22;12904;50.088;11.414;2024-02-21T00:07:22;7.20;99.90
24814;DHT22;12904;50.088;11.414;2024-02-21T00:09:48;7.20;99.90
24814;DHT22;12904;50.088;11.414;2024-02-21T00:12:14;7.20;99.90
24814;DHT22;12904;50.088;11.414;2024-02-21T00:14:40;7.20;99.90
24814;DHT22;12904;50.088;11.414;2024-02-21T00:17:06;7.10;99.90
24814;DHT22;12904;50.088;11.414;2024-02-21T00:19:33;7.00;99.90
24814;DHT22;12904;50.088;11.414;2024-02-21T00:21:59;6.90;99.90
24814;DHT22;12904;50.088;11.414;2024-02-21T00:24:25;6.70;99.90
24814;DHT22;12904;50.088;11.414;2024-02-21T00:26:50;6.60;99.90
24814;DHT22;12904;50.088;11.414;2024-02-21T00:29:16;6.60;99.90
24814;DHT22;12904;50.088;11.414;2024-02-21T00:31:41;6.50;99.90
24814;DHT22;12904;50.088;11.414;2024-02-21T00:34:07;6.50;99.90
24814;DHT22;12904;50.088;11.414;2024-02-21T00:36:33;6.50;99.90
24814;DHT22;12904;50.088;11.414;2024-02-21T00:38:58;6.50;99.90
24814;DHT22;12904;50.088;11.414;2024-02-21T00:41:24;6.40;99.90
24814;DHT22;12904;50.088;11.414;2024-02-21T00:43:50;6.50;99.90
24814;DHT22;12904;50.088;11.414;2024-02-21T00:46:15;6.50;99.90
24814;DHT22;12904;50.088;11.414;2024-02-21T00:48:41;6.50;99.90
24814;DHT22;12904;50.088;11.414;2024-02-21T00:51:07;6.50;99.90
24814;DHT22;12904;50.088;11.414;2024-02-21T00:53:32;6.50;99.90
24814;DHT22;12904;50.088;11.414;2024-02-21T00:55:58;6.50;99.90
24814;DHT22;12904;50.088;11.414;2024-02-21T00:58:24;6.50;99.90
24814;DHT22;12904;50.088;11.414;2024-02-21T01:00:49;6.40;99.90
24814;DHT22;12904;50.088;11.414;2024-02-21T01:03:15;6.40;99.90
24814;DHT22;12904;50.088;11.414;2024-02-21T01:05:40;6.50;99.90
24814;DHT22;12904;50.088;11.414;2024-02-21T01:08:06;6.40;99.90
24814;DHT22;12904;50.088;11.414;2024-02-21T01:10:32;6.40;99.90
24814;DHT22;12904;50.088;11.414;2024-02-21T01:12:57;6.50;99.90
24814;DHT22;12904;50.088;11.414;2024-02-21T01:15:24;6.50;99.90
24814;DHT22;12904;50.088;11.414;2024-02-21T01:17:49;6.50;99.90
24814;DHT22;12904;50.088;11.414;2024-02-21T01:20:20;6.50;99.90
24814;DHT22;12904;50.088;11.414;2024-02-21T01:22:46;6.50;99.90
24814;DHT22;12904;50.088;11.414;2024-02-21T01:25:11;6.50;99.90
24814;DHT22;12904;50.088;11.414;2024-02-21T01:27:37;6.60;99.90
24814;DHT22;12904;50.088;11.414;2024-02-21T01:30:03;6.60;99.90
24814;DHT22;12904;50.088;11.414;2024-02-21T01:32:29;6.60;99.90
24814;DHT22;12904;50.088;11.414;2024-02-21T01:34:54;6.70;99.90
24814;DHT22;12904;50.088;11.414;2024-02-21T01:37:20;6.70;99.90
24814;DHT22;12904;50.088;11.414;2024-02-21T01:39:46;6.80;99.90
24814;DHT22;12904;50.088;11.414;2024-02-21T01:42:11;6.80;99.90
24814;DHT22;12904;50.088;11.414;2024-02-21T01:44:37;6.80;99.90
24814;DHT22;12904;50.088;11.414;2024-02-21T01:47:03;6.80;99.90
24814;DHT22;12904;50.088;11.414;2024-02-21T01:49:29;6.90;99.90
24814;DHT22;12904;50.088;11.414;2024-02-21T01:51:55;6.90;99.90
24814;DHT22;12904;50.088;11.414;2024-02-21T01:54:21;7.00;99.90
24814;DHT22;12904;50.088;11.414;2024-02-21T01:56:47;7.00;99.90
24814;DHT22;12904;50.088;11.414;2024-02-21T01:59:15;7.00;99.90
24814;DHT22;12904;50.088;11.414;2024-02-21T02:01:41;7.00;99.90
24814;DHT22;12904;50.088;11.414;2024-02-21T02:04:07;7.10;99.90
24814;DHT22;12904;50.088;11.414;2024-02-21T02:06:34;7.00;99.90
24814;DHT22;12904;50.088;11.414;2024-02-21T02:09:00;7.10;99.90
24814;DHT22;12904;50.088;11.414;2024-02-21T02:11:25;7.00;99.90
24814;DHT22;12904;50.088;11.414;2024-02-21T02:13:51;7.00;99.90
24814;DHT22;12904;50.088;11.414;2024-02-21T02:16:17;7.00;99.90
24814;DHT22;12904;50.088;11.414;2024-02-21T02:18:42;7.00;99.90
24814;DHT22;12904;50.088;11.414;2024-02-21T02:21:15;7.10;99.90
24814;DHT22;12904;50.088;11.414;2024-02-21T02:23:48;7.10;99.90
24814;DHT22;12904;50.088;11.414;2024-02-21T02:26:14;7.10;99.90
24814;DHT22;12904;50.088;11.414;2024-02-21T02:28:39;7.10;99.90
24814;DHT22;12904;50.088;11.414;2024-02-21T02:31:05;7.10;99.90
24814;DHT22;12904;50.088;11.414;2024-02-21T02:33:31;7.10;99.90
24814;DHT22;12904;50.088;11.414;2024-02-21T02:35:56;7.20;99.90
24814;DHT22;12904;50.088;11.414;2024-02-21T02:38:24;7.10;99.90
24814;DHT22;12904;50.088;11.414;2024-02-21T02:40:49;7.10;99.90
24814;DHT22;12904;50.088;11.414;2024-02-21T02:43:15;7.10;99.90
24814;DHT22;12904;50.088;11.414;2024-02-21T02:45:40;7.00;99.90
24814;DHT22;12904;50.088;11.414;2024-02-21T02:48:06;7.00;99.90
24814;DHT22;12904;50.088;11.414;2024-02-21T02:50:32;6.90;99.90
24814;DHT22;12904;50.088;11.414;2024-02-21T02:52:58;6.90;99.90
24814;DHT22;12904;50.088;11.414;2024-02-21T02:55:23;6.90;99.90
24814;DHT22;12904;50.088;11.414;2024-02-21T02:57:49;6.80;99.90
24814;DHT22;12904;50.088;11.414;2024-02-21T03:00:15;6.80;99.90
24814;DHT22;12904;50.088;11.414;2024-02-21T03:02:43;6.70;99.90
24814;DHT22;12904;50.088;11.414;2024-02-21T03:05:17;6.70;99.90
24814;DHT22;12904;50.088;11.414;2024-02-21T03:07:43;6.60;99.90
24814;DHT22;12904;50.088;11.414;2024-02-21T03:10:10;6.60;99.90
24814;DHT22;12904;50.088;11.414;2024-02-21T03:12:36;6.60;99.90
24814;DHT22;12904;50.088;11.414;2024-02-21T03:15:02;6.60;99.90
24814;DHT22;12904;50.088;11.414;2024-02-21T03:17:27;6.60;99.90
24814;DHT22;12904;50.088;11.414;2024-02-21T03:19:54;6.60;99.90
24814;DHT22;12904;50.088;11.414;2024-02-21T03:22:21;6.60;99.90
24814;DHT22;12904;50.088;11.414;2024-02-21T03:24:47;6.60;99.90
24814;DHT22;12904;50.088;11.414;2024-02-21T03:27:13;6.60;99.90
24814;DHT22;12904;50.088;11.414;2024-02-21T03:29:38;6.60;99.90
24814;DHT22;12904;50.088;11.414;2024-02-21T03:32:04;6.70;99.90
24814;DHT22;12904;50.088;11.414;2024-02-21T03:34:30;6.70;99.90
24814;DHT22;12904;50.088;11.414;2024-02-21T03:36:55;6.70;99.90
24814;DHT22;12904;50.088;11.414;2024-02-21T03:39:21;6.70;99.90
24814;DHT22;12904;50.088;11.414;2024-02-21T03:41:48;6.70;99.90
24814;DHT22;12904;50.088;11.414;2024-02-21T03:44:14;6.60;99.90
24814;DHT22;12904;50.088;11.414;2024-02-21T03:46:39;6.60;99.90
24814;DHT22;12904;50.088;11.414;2024-02-21T03:49:05;6.60;99.90
24814;DHT22;12904;50.088;11.414;2024-02-21T03:51:31;6.50;99.90
24814;DHT22;12904;50.088;11.414;2024-02-21T03:53:56;6.50;99.90
24814;DHT22;12904;50.088;11.414;2024-02-21T03:56:22;6.50;99.90
24814;DHT22;12904;50.088;11.414;2024-02-21T03:58:47;6.50;99.90
24814;DHT22;12904;50.088;11.414;2024-02-21T04:01:15;6.50;99.90
24814;DHT22;12904;50.088;11.414;2024-02-21T04:03:41;6.50;99.90
24814;DHT22;12904;50.088;11.414;2024-02-21T04:06:07;6.50;99.90
24814;DHT22;12904;50.088;11.414;2024-02-21T04:08:33;6.50;99.90
24814;DHT22;12904;50.088;11.414;2024-02-21T04:10:59;6.50;99.90
24814;DHT22;12904;50.088;11.414;2024-02-21T04:13:24;6.50;99.90
24814;DHT22;12904;50.088;11.414;2024-02-21T04:15:51;6.50;99.90
24814;DHT22;12904;50.088;11.414;2024-02-21T04:18:16;6.50;99.90
24814;DHT22;12904;50.088;11.414;2024-02-21T04:20:42;6.50;99.90
24814;DHT22;12904;50.088;11.414;2024-02-21T04:23:08;6.50;99.90
24814;DHT22;12904;50.088;11.414;2024-02-21T04:25:33;6.60;99.90
24814;DHT22;12904;50.088;11.414;2024-02-21T04:27:59;6.60;99.90
24814;DHT22;12904;50.088;11.414;2024-02-21T04:30:25;6.60;99.90
24814;DHT22;12904;50.088;11.414;2024-02-21T04:32:50;6.60;99.90
24814;DHT22;12904;50.088;11.414;2024-02-21T04:35:16;6.70;99.90
24814;DHT22;12904;50.088;11.414;2024-02-21T04:37:42;6.70;99.90
24814;DHT22;12904;50.088;11.414;2024-02-21T04:40:08;6.80;99.90
24814;DHT22;12904;50.088;11.414;2024-02-21T04:42:34;6.80;99.90
24814;DHT22;12904;50.088;11.414;2024-02-21T04:45:00;6.90;99.90
24814;DHT22;12904;50.088;11.414;2024-02-21T04:47:26;6.90;99.90
24814;DHT22;12904;50.088;11.414;2024-02-21T04:49:52;6.90;99.90
24814;DHT22;12904;50.088;11.414;2024-02-21T04:52:17;6.90;99.90
24814;DHT22;12904;50.088;11.414;2024-02-21T04:54:43;6.90;99.90
24814;DHT22;12904;50.088;11.414;2024-02-21T04:57:09;6.90;99.90
24814;DHT22;12904;50.088;11.414;2024-02-21T04:59:36;6.90;99.90
24814;DHT22;12904;50.088;11.414;2024-02-21T05:02:02;6.90;99.90
24814;DHT22;12904;50.088;11.414;2024-02-21T05:04:27;6.90;99.90
24814;DHT22;12904;50.088;11.414;2024-02-21T05:06:53;6.90;99.90
24814;DHT22;12904;50.088;11.414;2024-02-21T05:09:20;6.90;99.90
24814;DHT22;12904;50.088;11.414;2024-02-21T05:11:46;6.90;99.90
24814;DHT22;12904;50.088;11.414;2024-02-21T05:14:12;6.90;99.90
24814;DHT22;12904;50.088;11.414;2024-02-21T05:16:39;6.90;99.90
24814;DHT22;12904;50.088;11.414;2024-02-21T05:19:05;7.00;99.90
24814;DHT22;12904;50.088;11.414;2024-02-21T05:21:31;6.90;99.90
24814;DHT22;12904;50.088;11.414;2024-02-21T05:23:56;6.90;99.90
24814;DHT22;12904;50.088;11.414;2024-02-21T05:28:48;6.90;99.90
24814;DHT22;12904;50.088;11.414;2024-02-21T05:31:15;6.80;99.90
24814;DHT22;12904;50.088;11.414;2024-02-21T05:33:41;6.80;99.90
24814;DHT22;12904;50.088;11.414;2024-02-21T05:36:06;6.80;99.90
24814;DHT22;12904;50.088;11.414;2024-02-21T05:38:32;6.80;99.90
24814;DHT22;12904;50.088;11.414;2024-02-21T05:40:58;6.80;99.90
24814;DHT22;12904;50.088;11.414;2024-02-21T05:43:23;6.80;99.90
24814;DHT22;12904;50.088;11.414;2024-02-21T05:45:49;6.70;99.90
24814;DHT22;12904;50.088;11.414;2024-02-21T05:48:15;6.70;99.90
24814;DHT22;12904;50.088;11.414;2024-02-21T05:50:41;6.70;99.90
24814;DHT22;12904;50.088;11.414;2024-02-21T05:53:06;6.70;99.90
24814;DHT22;12904;50.088;11.414;2024-02-21T05:55:32;6.70;99.90
24814;DHT22;12904;50.088;11.414;2024-02-21T05:57:57;6.70;99.90
24814;DHT22;12904;50.088;11.414;2024-02-21T06:00:23;6.70;99.90
24814;DHT22;12904;50.088;11.414;2024-02-21T06:02:49;6.80;99.90
24814;DHT22;12904;50.088;11.414;2024-02-21T06:05:15;6.80;99.90
24814;DHT22;12904;50.088;11.414;2024-02-21T06:07:40;6.80;99.90
24814;DHT22;12904;50.088;11.414;2024-02-21T06:10:07;6.80;99.90
24814;DHT22;12904;50.088;11.414;2024-02-21T06:12:33;6.70;99.90
24814;DHT22;12904;50.088;11.414;2024-02-21T06:14:59;6.70;99.90
24814;DHT22;12904;50.088;11.414;2024-02-21T06:17:24;6.70;99.90
24814;DHT22;12904;50.088;11.414;2024-02-21T06:19:50;6.60;99.90
24814;DHT22;12904;50.088;11.414;2024-02-21T06:22:15;6.50;99.90
24814;DHT22;12904;50.088;11.414;2024-02-21T06:24:41;6.50;99.90
24814;DHT22;12904;50.088;11.414;2024-02-21T06:27:08;6.50;99.90
24814;DHT22;12904;50.088;11.414;2024-02-21T06:29:33;6.50;99.90
24814;DHT22;12904;50.088;11.414;2024-02-21T06:32:00;6.50;99.90
24814;DHT22;12904;50.088;11.414;2024-02-21T06:34:25;6.50;99.90
24814;DHT22;12904;50.088;11.414;2024-02-21T06:36:51;6.40;99.90
24814;DHT22;12904;50.088;11.414;2024-02-21T06:39:17;6.40;99.90
24814;DHT22;12904;50.088;11.414;2024-02-21T06:41:43;6.40;99.90
24814;DHT22;12904;50.088;11.414;2024-02-21T06:44:09;6.40;99.90
24814;DHT22;12904;50.088;11.414;2024-02-21T06:46:35;6.30;99.90
24814;DHT22;12904;50.088;11.414;2024-02-21T06:49:01;6.30;99.90
24814;DHT22;12904;50.088;11.414;2024-02-21T06:51:28;6.40;99.90
24814;DHT22;12904;50.088;11.414;2024-02-21T06:53:54;6.40;99.90
24814;DHT22;12904;50.088;11.414;2024-02-21T06:56:20;6.40;99.90
24814;DHT22;12904;50.088;11.414;2024-02-21T06:58:45;6.40;99.90
24814;DHT22;12904;50.088;11.414;2024-02-21T07:01:11;6.50;99.90
24814;DHT22;12904;50.088;11.414;2024-02-21T07:03:37;6.60;99.90
24814;DHT22;12904;50.088;11.414;2024-02-21T07:06:03;6.70;99.90
24814;DHT22;12904;50.088;11.414;2024-02-21T07:08:29;6.80;99.90
24814;DHT22;12904;50.088;11.414;2024-02-21T07:10:54;6.90;99.90
24814;DHT22;12904;50.088;11.414;2024-02-21T07:13:20;7.10;99.90
24814;DHT22;12904;50.088;11.414;2024-02-21T07:15:47;7.20;99.90
24814;DHT22;12904;50.088;11.414;2024-02-21T07:18:13;7.30;99.90
24814;DHT22;12904;50.088;11.414;2024-02-21T07:20:39;7.30;99.90
24814;DHT22;12904;50.088;11.414;2024-02-21T07:23:07;7.40;99.90
24814;DHT22;12904;50.088;11.414;2024-02-21T07:25:32;7.50;99.90
24814;DHT22;12904;50.088;11.414;2024-02-21T07:27:58;7.60;99.90
24814;DHT22;12904;50.088;11.414;2024-02-21T07:30:24;7.60;99.90
24814;DHT22;12904;50.088;11.414;2024-02-21T07:32:50;7.60;99.90
24814;DHT22;12904;50.088;11.414;2024-02-21T07:35:17;7.70;99.90
24814;DHT22;12904;50.088;11.414;2024-02-21T07:37:42;7.70;99.90
24814;DHT22;12904;50.088;11.414;2024-02-21T07:40:15;7.70;99.90
24814;DHT22;12904;50.088;11.414;2024-02-21T07:42:41;7.60;99.90
24814;DHT22;12904;50.088;11.414;2024-02-21T07:45:08;7.60;99.90
24814;DHT22;12904;50.088;11.414;2024-02-21T07:47:34;7.60;99.90
24814;DHT22;12904;50.088;11.414;2024-02-21T07:50:00;7.50;99.90
24814;DHT22;12904;50.088;11.414;2024-02-21T07:52:25;7.50;99.90
24814;DHT22;12904;50.088;11.414;2024-02-21T07:54:51;7.50;99.90
24814;DHT22;12904;50.088;11.414;2024-02-21T07:57:17;7.50;99.90
24814;DHT22;12904;50.088;11.414;2024-02-21T07:59:42;7.60;99.90
24814;DHT22;12904;50.088;11.414;2024-02-21T08:02:08;7.60;99.90
24814;DHT22;12904;50.088;11.414;2024-02-21T08:04:34;7.60;99.90
24814;DHT22;12904;50.088;11.414;2024-02-21T08:07:00;7.60;99.90
24814;DHT22;12904;50.088;11.414;2024-02-21T08:09:28;7.60;99.90
24814;DHT22;12904;50.088;11.414;2024-02-21T08:11:57;7.70;99.90
24814;DHT22;12904;50.088;11.414;2024-02-21T08:14:22;7.70;99.90
24814;DHT22;12904;50.088;11.414;2024-02-21T08:16:50;7.80;99.90
24814;DHT22;12904;50.088;11.414;2024-02-21T08:19:16;7.80;99.90
24814;DHT22;12904;50.088;11.414;2024-02-21T08:21:42;7.80;99.90
24814;DHT22;12904;50.088;11.414;2024-02-21T08:24:07;7.80;99.90
24814;DHT22;12904;50.088;11.414;2024-02-21T08:26:33;7.90;99.90
24814;DHT22;12904;50.088;11.414;2024-02-21T08:28:59;7.90;99.90
24814;DHT22;12904;50.088;11.414;2024-02-21T08:31:26;7.90;99.90
24814;DHT22;12904;50.088;11.414;2024-02-21T08:34:00;7.90;99.90
24814;DHT22;12904;50.088;11.414;2024-02-21T08:36:30;7.90;99.90
24814;DHT22;12904;50.088;11.414;2024-02-21T08:38:56;8.00;99.90
24814;DHT22;12904;50.088;11.414;2024-02-21T08:41:23;8.10;99.90
24814;DHT22;12904;50.088;11.414;2024-02-21T08:43:50;8.20;99.90
24814;DHT22;12904;50.088;11.414;2024-02-21T08:46:16;8.20;99.90
24814;DHT22;12904;50.088;11.414;2024-02-21T08:48:43;8.30;99.90
24814;DHT22;12904;50.088;11.414;2024-02-21T08:51:08;8.30;99.90
24814;DHT22;12904;50.088;11.414;2024-02-21T08:53:34;8.40;99.90
24814;DHT22;12904;50.088;11.414;2024-02-21T08:56:00;8.40;99.90
24814;DHT22;12904;50.088;11.414;2024-02-21T08:58:25;8.40;99.90
24814;DHT22;12904;50.088;11.414;2024-02-21T09:00:52;8.40;99.90
24814;DHT22;12904;50.088;11.414;2024-02-21T09:03:17;8.60;99.90
24814;DHT22;12904;50.088;11.414;2024-02-21T09:05:46;8.70;99.90
24814;DHT22;12904;50.088;11.414;2024-02-21T09:08:12;8.90;99.90
24814;DHT22;12904;50.088;11.414;2024-02-21T09:10:39;8.90;99.90
24814;DHT22;12904;50.088;11.414;2024-02-21T09:13:05;9.10;99.90
24814;DHT22;12904;50.088;11.414;2024-02-21T09:15:33;9.30;99.90
24814;DHT22;12904;50.088;11.414;2024-02-21T09:17:58;9.50;99.90
24814;DHT22;12904;50.088;11.414;2024-02-21T09:20:24;9.70;99.90
24814;DHT22;12904;50.088;11.414;2024-02-21T09:22:50;9.60;99.90
24814;DHT22;12904;50.088;11.414;2024-02-21T09:25:16;9.60;99.90
24814;DHT22;12904;50.088;11.414;2024-02-21T09:27:44;9.50;99.90
24814;DHT22;12904;50.088;11.414;2024-02-21T09:30:10;9.50;99.90
24814;DHT22;12904;50.088;11.414;2024-02-21T09:32:35;9.40;99.90
24814;DHT22;12904;50.088;11.414;2024-02-21T09:35:01;9.30;99.90
24814;DHT22;12904;50.088;11.414;2024-02-21T09:37:27;9.20;99.90
24814;DHT22;12904;50.088;11.414;2024-02-21T09:39:53;9.10;99.90
24814;DHT22;12904;50.088;11.414;2024-02-21T09:42:20;9.00;99.90
24814;DHT22;12904;50.088;11.414;2024-02-21T09:44:48;8.90;99.90
24814;DHT22;12904;50.088;11.414;2024-02-21T09:47:29;9.10;99.90
24814;DHT22;12904;50.088;11.414;2024-02-21T09:49:58;9.20;99.90
24814;DHT22;12904;50.088;11.414;2024-02-21T09:52:25;9.30;99.90
24814;DHT22;12904;50.088;11.414;2024-02-21T09:54:52;9.50;99.90
24814;DHT22;12904;50.088;11.414;2024-02-21T09:57:19;9.60;99.90
24814;DHT22;12904;50.088;11.414;2024-02-21T09:59:45;9.70;99.90
24814;DHT22;12904;50.088;11.414;2024-02-21T10:02:11;9.90;99.90
24814;DHT22;12904;50.088;11.414;2024-02-21T10:04:39;10.00;99.90
24814;DHT22;12904;50.088;11.414;2024-02-21T10:07:05;9.90;99.90
24814;DHT22;12904;50.088;11.414;2024-02-21T10:09:31;9.80;99.90
24814;DHT22;12904;50.088;11.414;2024-02-21T10:12:11;10.00;99.90
24814;DHT22;12904;50.088;11.414;2024-02-21T10:14:37;10.00;99.90
24814;DHT22;12904;50.088;11.414;2024-02-21T10:17:03;9.90;99.90
24814;DHT22;12904;50.088;11.414;2024-02-21T10:19:30;9.90;99.90
24814;DHT22;12904;50.088;11.414;2024-02-21T10:22:09;9.90;99.90
24814;DHT22;12904;50.088;11.414;2024-02-21T10:24:35;9.80;99.90
24814;DHT22;12904;50.088;11.414;2024-02-21T10:27:04;10.00;99.90
24814;DHT22;12904;50.088;11.414;2024-02-21T10:29:33;10.40;99.90
24814;DHT22;12904;50.088;11.414;2024-02-21T10:32:12;10.80;99.90
24814;DHT22;12904;50.088;11.414;2024-02-21T10:34:39;10.90;99.90
24814;DHT22;12904;50.088;11.414;2024-02-21T10:37:06;11.20;99.90
24814;DHT22;12904;50.088;11.414;2024-02-21T10:39:33;11.50;99.90
24814;DHT22;12904;50.088;11.414;2024-02-21T10:42:01;11.30;99.90
24814;DHT22;12904;50.088;11.414;2024-02-21T10:44:31;11.10;99.90
24814;DHT22;12904;50.088;11.414;2024-02-21T10:46:57;11.00;99.90
24814;DHT22;12904;50.088;11.414;2024-02-21T10:49:25;11.00;99.90
24814;DHT22;12904;50.088;11.414;2024-02-21T10:51:55;11.00;99.90
24814;DHT22;12904;50.088;11.414;2024-02-21T10:54:30;10.80;99.90
24814;DHT22;12904;50.088;11.414;2024-02-21T10:56:58;10.70;99.90
24814;DHT22;12904;50.088;11.414;2024-02-21T10:59:27;10.60;99.90
24814;DHT22;12904;50.088;11.414;2024-02-21T11:01:54;10.80;99.90
24814;DHT22;12904;50.088;11.414;2024-02-21T11:04:20;11.00;99.90
24814;DHT22;12904;50.088;11.414;2024-02-21T11:06:46;11.20;99.90
24814;DHT22;12904;50.088;11.414;2024-02-21T11:09:12;11.30;99.90
24814;DHT22;12904;50.088;11.414;2024-02-21T11:11:39;11.20;99.90
24814;DHT22;12904;50.088;11.414;2024-02-21T11:16:35;10.90;99.90
24814;DHT22;12904;50.088;11.414;2024-02-21T11:19:09;10.80;99.90
24814;DHT22;12904;50.088;11.414;2024-02-21T11:21:37;11.00;99.90
24814;DHT22;12904;50.088;11.414;2024-02-21T11:24:03;11.10;99.90
24814;DHT22;12904;50.088;11.414;2024-02-21T11:26:30;11.20;99.90
24814;DHT22;12904;50.088;11.414;2024-02-21T11:29:00;11.40;99.90
24814;DHT22;12904;50.088;11.414;2024-02-21T11:31:26;11.40;99.90
24814;DHT22;12904;50.088;11.414;2024-02-21T11:33:55;11.50;99.90
24814;DHT22;12904;50.088;11.414;2024-02-21T11:36:26;11.40;99.90
24814;DHT22;12904;50.088;11.414;2024-02-21T11:38:52;11.40;99.90
24814;DHT22;12904;50.088;11.414;2024-02-21T11:41:21;11.60;99.90
24814;DHT22;12904;50.088;11.414;2024-02-21T11:43:48;11.60;99.90
24814;DHT22;12904;50.088;11.414;2024-02-21T11:46:15;11.80;99.90
24814;DHT22;12904;50.088;11.414;2024-02-21T11:48:41;11.80;99.90
24814;DHT22;12904;50.088;11.414;2024-02-21T11:51:09;11.90;99.90
24814;DHT22;12904;50.088;11.414;2024-02-21T11:53:35;12.00;99.90
24814;DHT22;12904;50.088;11.414;2024-02-21T11:56:01;11.90;99.90
24814;DHT22;12904;50.088;11.414;2024-02-21T11:58:26;11.90;99.90
24814;DHT22;12904;50.088;11.414;2024-02-21T12:00:52;11.90;99.90
24814;DHT22;12904;50.088;11.414;2024-02-21T12:03:18;12.10;99.90
24814;DHT22;12904;50.088;11.414;2024-02-21T12:05:44;12.10;99.90
24814;DHT22;12904;50.088;11.414;2024-02-21T12:08:12;12.10;99.90
24814;DHT22;12904;50.088;11.414;2024-02-21T12:10:37;12.10;99.90
24814;DHT22;12904;50.088;11.414;2024-02-21T12:13:09;12.00;99.90
24814;DHT22;12904;50.088;11.414;2024-02-21T12:15:35;11.90;99.90
24814;DHT22;12904;50.088;11.414;2024-02-21T12:18:00;11.70;99.90
24814;DHT22;12904;50.088;11.414;2024-02-21T12:20:26;11.70;99.90
24814;DHT22;12904;50.088;11.414;2024-02-21T12:22:52;11.80;99.90
24814;DHT22;12904;50.088;11.414;2024-02-21T12:25:22;11.90;99.90
24814;DHT22;12904;50.088;11.414;2024-02-21T12:27:48;11.90;99.90
24814;DHT22;12904;50.088;11.414;2024-02-21T12:30:15;12.00;99.90
24814;DHT22;12904;50.088;11.414;2024-02-21T12:32:41;11.90;99.90
24814;DHT22;12904;50.088;11.414;2024-02-21T12:35:07;11.70;99.90
24814;DHT22;12904;50.088;11.414;2024-02-21T12:37:32;11.70;99.90
24814;DHT22;12904;50.088;11.414;2024-02-21T12:39:59;11.70;99.90
24814;DHT22;12904;50.088;11.414;2024-02-21T12:42:25;11.70;99.90
24814;DHT22;12904;50.088;11.414;2024-02-21T12:44:54;11.60;99.90
24814;DHT22;12904;50.088;11.414;2024-02-21T12:47:20;11.60;99.90
24814;DHT22;12904;50.088;11.414;2024-02-21T12:49:49;11.60;99.90
24814;DHT22;12904;50.088;11.414;2024-02-21T12:52:14;11.70;99.90
24814;DHT22;12904;50.088;11.414;2024-02-21T12:54:40;11.80;99.90
24814;DHT22;12904;50.088;11.414;2024-02-21T12:57:06;12.00;99.90
24814;DHT22;12904;50.088;11.414;2024-02-21T12:59:31;12.10;99.90
24814;DHT22;12904;50.088;11.414;2024-02-21T13:01:57;12.20;99.90
24814;DHT22;12904;50.088;11.414;2024-02-21T13:04:23;12.30;99.90
24814;DHT22;12904;50.088;11.414;2024-02-21T13:06:49;12.40;99.90
24814;DHT22;12904;50.088;11.414;2024-02-21T13:09:14;12.40;99.90
24814;DHT22;12904;50.088;11.414;2024-02-21T13:11:42;12.30;99.90
24814;DHT22;12904;50.088;11.414;2024-02-21T13:14:09;12.20;99.90
24814;DHT22;12904;50.088;11.414;2024-02-21T13:16:35;12.30;99.90
24814;DHT22;12904;50.088;11.414;2024-02-21T13:19:05;12.30;99.90
24814;DHT22;12904;50.088;11.414;2024-02-21T13:21:30;12.20;99.90
24814;DHT22;12904;50.088;11.414;2024-02-21T13:23:56;12.10;99.90
24814;DHT22;12904;50.088;11.414;2024-02-21T13:26:22;12.10;99.90
24814;DHT22;12904;50.088;11.414;2024-02-21T13:28:48;12.00;99.90
24814;DHT22;12904;50.088;11.414;2024-02-21T13:31:14;12.00;99.90
24814;DHT22;12904;50.088;11.414;2024-02-21T13:33:42;12.00;99.90
24814;DHT22;12904;50.088;11.414;2024-02-21T13:36:07;12.10;99.90
24814;DHT22;12904;50.088;11.414;2024-02-21T13:38:33;12.20;99.90
24814;DHT22;12904;50.088;11.414;2024-02-21T13:40:59;12.20;99.90
24814;DHT22;12904;50.088;11.414;2024-02-21T13:43:25;12.20;99.90
24814;DHT22;12904;50.088;11.414;2024-02-21T13:45:59;12.40;99.90
24814;DHT22;12904;50.088;11.414;2024-02-21T13:48:25;12.50;99.90
24814;DHT22;12904;50.088;11.414;2024-02-21T13:50:52;12.60;99.90
24814;DHT22;12904;50.088;11.414;2024-02-21T13:53:17;12.60;99.90
24814;DHT22;12904;50.088;11.414;2024-02-21T13:55:44;12.70;99.90
24814;DHT22;12904;50.088;11.414;2024-02-21T13:58:10;12.60;99.90
24814;DHT22;12904;50.088;11.414;2024-02-21T14:00:36;12.40;99.90
24814;DHT22;12904;50.088;11.414;2024-02-21T14:03:02;12.20;99.90
24814;DHT22;12904;50.088;11.414;2024-02-21T14:05:28;12.00;99.90
24814;DHT22;12904;50.088;11.414;2024-02-21T14:07:53;11.80;99.90
24814;DHT22;12904;50.088;11.414;2024-02-21T14:10:20;11.60;99.90
24814;DHT22;12904;50.088;11.414;2024-02-21T14:12:46;11.40;99.90
24814;DHT22;12904;50.088;11.414;2024-02-21T14:15:13;11.40;99.90
24814;DHT22;12904;50.088;11.414;2024-02-21T14:17:39;11.40;99.90
24814;DHT22;12904;50.088;11.414;2024-02-21T14:20:08;11.30;99.90
24814;DHT22;12904;50.088;11.414;2024-02-21T14:22:34;11.20;99.90
24814;DHT22;12904;50.088;11.414;2024-02-21T14:25:00;11.10;99.90
24814;DHT22;12904;50.088;11.414;2024-02-21T14:27:26;11.00;99.90
24814;DHT22;12904;50.088;11.414;2024-02-21T14:29:52;11.00;99.90
24814;DHT22;12904;50.088;11.414;2024-02-21T14:32:18;11.10;99.90
24814;DHT22;12904;50.088;11.414;2024-02-21T14:34:45;11.10;99.90
24814;DHT22;12904;50.088;11.414;2024-02-21T14:37:11;11.10;99.90
24814;DHT22;12904;50.088;11.414;2024-02-21T14:39:37;11.10;99.90
24814;DHT22;12904;50.088;11.414;2024-02-21T14:42:03;11.20;99.90
24814;DHT22;12904;50.088;11.414;2024-02-21T14:44:28;11.10;99.90
24814;DHT22;12904;50.088;11.414;2024-02-21T14:46:54;11.10;99.90
24814;DHT22;12904;50.088;11.414;2024-02-21T14:49:20;11.10;99.90
24814;DHT22;12904;50.088;11.414;2024-02-21T14:51:45;11.00;99.90
24814;DHT22;12904;50.088;11.414;2024-02-21T14:54:11;11.00;99.90
24814;DHT22;12904;50.088;11.414;2024-02-21T14:56:37;11.00;99.90
24814;DHT22;12904;50.088;11.414;2024-02-21T14:59:03;11.00;99.90
24814;DHT22;12904;50.088;11.414;2024-02-21T15:01:29;11.00;99.90
24814;DHT22;12904;50.088;11.414;2024-02-21T15:03:55;10.90;99.90
24814;DHT22;12904;50.088;11.414;2024-02-21T15:06:20;10.90;99.90
24814;DHT22;12904;50.088;11.414;2024-02-21T15:08:46;10.90;99.90
24814;DHT22;12904;50.088;11.414;2024-02-21T15:11:14;10.80;99.90
24814;DHT22;12904;50.088;11.414;2024-02-21T15:13:39;10.90;99.90
24814;DHT22;12904;50.088;11.414;2024-02-21T15:16:05;10.80;99.90
24814;DHT22;12904;50.088;11.414;2024-02-21T15:18:31;10.70;99.90
24814;DHT22;12904;50.088;11.414;2024-02-21T15:21:03;10.60;99.90
24814;DHT22;12904;50.088;11.414;2024-02-21T15:23:28;10.50;99.90